Time;durP1;ratioP1;P1;durP2;ratioP2;P2;SDS_P1;SDS_P2;PMS_P1;PMS_P2;Temp;Humidity;BMP_temperature;BMP_pressure;BME280_temperature;BME280_humidity;BME280_pressure;Samples;Min_cycle;Max_cycle;Signal;HPM_P1;HPM_P2
2023/07/13 00:00:25;;;;;;;;;;;;;;;16.04;70.92;101308.59;5020661;28;1525;-65
2023/07/13 00:02:53;;;;;;;;;;;;;;;16.03;70.58;101302.56;5022588;28;1323;-64
2023/07/13 00:05:18;;;;;;;;;;;;;;;16.03;71.04;101301.75;5020879;28;1494;-68
2023/07/13 00:07:46;;;;;;;;;;;;;;;16.03;70.99;101309.59;5021775;28;1957;-67
2023/07/13 00:10:11;;;;;;;;;;;;;;;16.01;70.86;101303.69;5019459;28;1181;-68
2023/07/13 00:12:37;;;;;;;;;;;;;;;15.99;71.48;101305.59;5021563;28;1204;-66
2023/07/13 00:15:04;;;;;;;;;;;;;;;15.98;71.06;101319.66;5024360;28;1140;-65
2023/07/13 00:17:30;;;;;;;;;;;;;;;15.97;71.42;101313.63;5021620;28;1339;-66
2023/07/13 00:19:56;;;;;;;;;;;;;;;15.95;71.69;101310.34;5021533;28;922;-67
2023/07/13 00:22:21;;;;;;;;;;;;;;;15.92;71.18;101308.81;5023601;28;1328;-65
2023/07/13 00:24:46;;;;;;;;;;;;;;;15.87;71.22;101297.97;5021280;28;1200;-65
2023/07/13 00:27:12;;;;;;;;;;;;;;;15.86;71.36;101301.56;5018381;28;1213;-64
2023/07/13 00:29:37;;;;;;;;;;;;;;;15.86;71.31;101296.34;5016265;28;1992;-65
2023/07/13 00:32:06;;;;;;;;;;;;;;;15.83;71.57;101290.59;5016926;28;1331;-68
2023/07/13 00:34:32;;;;;;;;;;;;;;;15.83;72.04;101291.41;5024992;28;1364;-65
2023/07/13 00:36:57;;;;;;;;;;;;;;;15.81;71.95;101303.81;5015370;28;1631;-66
2023/07/13 00:39:23;;;;;;;;;;;;;;;15.80;72.15;101302.16;5018642;28;1437;-64
2023/07/13 00:41:48;;;;;;;;;;;;;;;15.81;71.94;101303.81;5015941;28;1270;-66
2023/07/13 00:44:15;;;;;;;;;;;;;;;15.82;72.19;101305.44;5021422;28;988;-68
2023/07/13 00:46:40;;;;;;;;;;;;;;;15.80;72.28;101306.56;5016852;28;1070;-65
2023/07/13 00:49:07;;;;;;;;;;;;;;;15.82;72.41;101305.44;5024906;28;1973;-67
2023/07/13 00:51:36;;;;;;;;;;;;;;;15.86;71.86;101311.22;5024624;28;1039;-64
2023/07/13 00:54:04;;;;;;;;;;;;;;;15.87;71.89;101305.00;5019849;28;1092;-67
2023/07/13 00:56:30;;;;;;;;;;;;;;;15.87;71.77;101307.63;5018261;28;1317;-68
2023/07/13 00:58:56;;;;;;;;;;;;;;;15.87;72.01;101308.44;5016233;28;1405;-65
2023/07/13 01:01:21;;;;;;;;;;;;;;;15.83;71.92;101312.34;5013957;28;1375;-67
2023/07/13 01:03:46;;;;;;;;;;;;;;;15.79;71.80;101310.97;5022187;28;1129;-65
2023/07/13 01:06:12;;;;;;;;;;;;;;;15.78;72.18;101325.03;5018891;28;1863;-65
2023/07/13 01:08:37;;;;;;;;;;;;;;;15.77;71.98;101328.63;5015995;28;1902;-69
2023/07/13 01:11:02;;;;;;;;;;;;;;;15.81;72.34;101329.97;5016177;28;1142;-68
2023/07/13 01:13:27;;;;;;;;;;;;;;;15.82;72.23;101323.75;5021488;28;1248;-67
2023/07/13 01:15:54;;;;;;;;;;;;;;;15.80;72.40;101327.50;5019188;28;1102;-69
2023/07/13 01:18:24;;;;;;;;;;;;;;;15.78;72.29;101327.66;5019933;28;1024;-68
2023/07/13 01:20:57;;;;;;;;;;;;;;;15.76;72.18;101323.53;5018803;28;1137;-70
2023/07/13 01:23:22;;;;;;;;;;;;;;;15.73;72.27;101319.41;5016699;28;1171;-68
2023/07/13 01:25:48;;;;;;;;;;;;;;;15.70;72.15;101322.31;5020751;28;1015;-68
2023/07/13 01:28:13;;;;;;;;;;;;;;;15.68;72.11;101321.66;5020674;28;1886;-65
2023/07/13 01:30:39;;;;;;;;;;;;;;;15.64;72.33;101322.91;5021962;28;1221;-67
2023/07/13 01:33:06;;;;;;;;;;;;;;;15.59;72.93;101325.91;5012772;28;1323;-69
2023/07/13 01:35:32;;;;;;;;;;;;;;;15.55;72.74;101336.84;5026108;28;1196;-66
2023/07/13 01:37:57;;;;;;;;;;;;;;;15.49;72.64;101325.16;5017696;28;1322;-65
2023/07/13 01:40:22;;;;;;;;;;;;;;;15.45;73.42;101328.19;5015012;28;1681;-66
2023/07/13 01:42:47;;;;;;;;;;;;;;;15.38;73.39;101326.16;5021146;28;1531;-69
2023/07/13 01:45:13;;;;;;;;;;;;;;;15.37;73.74;101334.97;5016245;28;1007;-66
2023/07/13 01:47:38;;;;;;;;;;;;;;;15.35;73.41;101329.06;5021001;28;1965;-69
2023/07/13 01:50:03;;;;;;;;;;;;;;;15.32;74.28;101318.91;5016776;28;1201;-68
2023/07/13 01:52:28;;;;;;;;;;;;;;;15.30;73.60;101309.53;5030905;28;1430;-67
2023/07/13 01:54:54;;;;;;;;;;;;;;;15.30;74.04;101310.38;5013462;28;1125;-66
2023/07/13 01:57:19;;;;;;;;;;;;;;;15.28;73.78;101319.34;5019117;28;1305;-67
2023/07/13 01:59:44;;;;;;;;;;;;;;;15.20;73.92;101319.22;5017563;28;1070;-69
2023/07/13 02:02:09;;;;;;;;;;;;;;;15.15;74.23;101327.50;5027276;28;1015;-68
2023/07/13 02:04:35;;;;;;;;;;;;;;;15.09;74.42;101328.06;5020433;28;1090;-65
2023/07/13 02:07:00;;;;;;;;;;;;;;;15.10;74.58;101325.31;5021468;28;1104;-65
2023/07/13 02:09:25;;;;;;;;;;;;;;;15.12;74.66;101327.75;5018114;28;1894;-66
2023/07/13 02:11:50;;;;;;;;;;;;;;;15.14;74.33;101326.69;5016682;28;1286;-65
2023/07/13 02:14:15;;;;;;;;;;;;;;;15.13;74.84;101324.19;5022286;28;1367;-67
2023/07/13 02:16:41;;;;;;;;;;;;;;;15.09;74.60;101328.06;5021274;28;1373;-66
2023/07/13 02:19:06;;;;;;;;;;;;;;;15.04;74.95;101325.88;5019976;28;1242;-65
2023/07/13 02:21:31;;;;;;;;;;;;;;;15.02;75.10;101337.41;5017437;28;1658;-67
2023/07/13 02:23:57;;;;;;;;;;;;;;;14.99;75.46;101337.72;5011577;28;1261;-66
2023/07/13 02:26:22;;;;;;;;;;;;;;;14.93;75.32;101340.88;5020061;28;1139;-65
2023/07/13 02:28:48;;;;;;;;;;;;;;;14.93;75.83;101333.88;5013316;28;1890;-66
2023/07/13 02:31:14;;;;;;;;;;;;;;;14.90;75.55;101339.38;5021189;28;1264;-67
2023/07/13 02:33:39;;;;;;;;;;;;;;;14.90;75.59;101333.31;5023064;28;1279;-67
2023/07/13 02:36:05;;;;;;;;;;;;;;;14.88;76.04;101336.91;5027796;28;1228;-65
2023/07/13 02:38:33;;;;;;;;;;;;;;;14.87;76.38;101332.66;5016640;28;1347;-65
2023/07/13 02:40:58;;;;;;;;;;;;;;;14.87;76.12;101340.47;5021959;28;1180;-66
2023/07/13 02:43:23;;;;;;;;;;;;;;;14.83;76.10;101339.09;5019525;28;1260;-65
2023/07/13 02:45:49;;;;;;;;;;;;;;;14.84;76.64;101330.31;5019161;28;1082;-65
2023/07/13 02:48:14;;;;;;;;;;;;;;;14.86;76.64;101331.00;5022829;28;1902;-67
2023/07/13 02:50:39;;;;;;;;;;;;;;;14.84;76.79;101337.31;5010318;28;1529;-68
2023/07/13 02:53:04;;;;;;;;;;;;;;;14.81;76.96;101335.81;5014410;28;1414;-66
2023/07/13 02:55:29;;;;;;;;;;;;;;;14.77;77.14;101338.84;5001096;28;1221;-68
2023/07/13 02:57:55;;;;;;;;;;;;;;;14.75;77.54;101336.38;5010247;28;1229;-67
2023/07/13 03:00:20;;;;;;;;;;;;;;;14.74;76.92;101339.97;5000777;28;1229;-65
2023/07/13 03:02:45;;;;;;;;;;;;;;;14.71;77.35;101340.22;5007412;28;1506;-68
2023/07/13 03:05:12;;;;;;;;;;;;;;;14.70;77.34;101340.38;5009450;28;984;-65
2023/07/13 03:07:38;;;;;;;;;;;;;;;14.67;77.44;101344.06;5012757;28;1902;-68
2023/07/13 03:10:03;;;;;;;;;;;;;;;14.65;77.48;101343.41;5004095;28;1228;-66
2023/07/13 03:12:28;;;;;;;;;;;;;;;14.63;78.00;101337.50;5007540;28;1181;-65
2023/07/13 03:14:54;;;;;;;;;;;;;;;14.63;77.81;101347.13;5011580;28;1220;-67
2023/07/13 03:17:19;;;;;;;;;;;;;;;14.61;78.11;101349.84;5008458;28;1236;-66
2023/07/13 03:19:44;;;;;;;;;;;;;;;14.58;77.87;101345.75;5011573;28;1222;-66
2023/07/13 03:22:10;;;;;;;;;;;;;;;14.57;78.37;101353.72;5007870;28;1158;-66
2023/07/13 03:24:35;;;;;;;;;;;;;;;14.57;78.39;101348.50;5001259;28;1053;-66
2023/07/13 03:27:01;;;;;;;;;;;;;;;14.57;78.62;101343.28;5006901;28;1498;-69
2023/07/13 03:29:26;;;;;;;;;;;;;;;14.61;78.48;101344.63;5004879;28;1918;-64
2023/07/13 03:31:52;;;;;;;;;;;;;;;14.62;78.36;101346.28;5004233;28;1524;-66
2023/07/13 03:34:17;;;;;;;;;;;;;;;14.57;78.56;101348.50;5019356;28;1002;-66
2023/07/13 03:36:42;;;;;;;;;;;;;;;14.55;78.50;101350.41;5011480;28;1349;-64
2023/07/13 03:39:08;;;;;;;;;;;;;;;14.52;78.76;101350.69;5012113;28;1195;-66
2023/07/13 03:41:34;;;;;;;;;;;;;;;14.51;79.24;101359.50;5015324;28;1253;-66
2023/07/13 03:44:06;;;;;;;;;;;;;;;14.51;79.16;101359.50;5010143;28;1369;-69
2023/07/13 03:46:33;;;;;;;;;;;;;;;14.53;79.31;101362.78;5002699;22;1715;-83
2023/07/13 03:49:13;;;;;;;;;;;;;;;14.54;79.08;101367.03;5017215;28;1906;-82
2023/07/13 03:51:46;;;;;;;;;;;;;;;14.51;79.31;101364.72;4998985;28;1050;-82
2023/07/13 03:54:20;;;;;;;;;;;;;;;14.48;79.34;101362.38;4999968;28;1057;-82
2023/07/13 03:56:57;;;;;;;;;;;;;;;14.43;79.84;101372.34;4999263;28;1492;-82
2023/07/13 03:59:35;;;;;;;;;;;;;;;;;;;;;
2023/07/13 04:05:06;;;;;;;;;;;;;;;14.46;80.08;101372.09;4991176;28;1237;-81
2023/07/13 04:07:33;;;;;;;;;;;;;;;14.44;80.15;101368.78;4996707;28;1366;-81
2023/07/13 04:09:59;;;;;;;;;;;;;;;14.45;80.51;101383.47;5000977;28;1960;-81
2023/07/13 04:12:29;;;;;;;;;;;;;;;14.43;80.48;101377.56;5005743;28;1276;-81
2023/07/13 04:15:03;;;;;;;;;;;;;;;14.43;81.35;101374.97;5004273;28;1710;-82
2023/07/13 04:17:31;;;;;;;;;;;;;;;14.41;81.01;101379.50;5000375;28;1362;-81
2023/07/13 04:19:56;;;;;;;;;;;;;;;14.41;81.17;101384.72;5005420;28;1094;-81
2023/07/13 04:22:21;;;;;;;;;;;;;;;14.42;81.47;101388.97;5000041;28;1210;-82
2023/07/13 04:24:59;;;;;;;;;;;;;;;;;;;;;
2023/07/13 04:27:35;;;;;;;;;;;;;;;14.39;81.07;101391.84;4994825;28;1273;-81
2023/07/13 04:30:03;;;;;;;;;;;;;;;14.37;81.04;101396.38;5003144;28;1902;-81
2023/07/13 04:32:28;;;;;;;;;;;;;;;14.40;81.29;101398.75;5005355;28;1170;-81
2023/07/13 04:34:55;;;;;;;;;;;;;;;14.40;81.22;101396.97;5000591;28;1329;-81
2023/07/13 04:37:23;;;;;;;;;;;;;;;14.40;81.60;101409.19;5019832;28;1242;-82
2023/07/13 04:39:48;;;;;;;;;;;;;;;14.41;81.50;101405.59;4997631;28;1233;-82
2023/07/13 04:42:14;;;;;;;;;;;;;;;14.40;81.67;101399.56;5012688;28;1361;-81
2023/07/13 04:44:39;;;;;;;;;;;;;;;14.41;81.38;101397.78;5000621;28;1337;-81
2023/07/13 04:47:04;;;;;;;;;;;;;;;14.45;81.68;101401.75;5006280;28;1609;-81
2023/07/13 04:49:30;;;;;;;;;;;;;;;14.46;81.94;101403.41;4999305;28;2001;-82
2023/07/13 04:51:55;;;;;;;;;;;;;;;14.48;82.21;101409.34;4995389;28;1182;-81
2023/07/13 04:54:21;;;;;;;;;;;;;;;14.54;82.22;101408.78;5002925;28;1667;-82
2023/07/13 04:56:46;;;;;;;;;;;;;;;14.57;82.63;101419.81;5001012;28;1380;-82
2023/07/13 04:59:12;;;;;;;;;;;;;;;14.61;82.51;101417.72;5000997;28;1282;-81
2023/07/13 05:01:37;;;;;;;;;;;;;;;14.62;82.49;101414.16;5004586;28;1301;-81
2023/07/13 05:04:02;;;;;;;;;;;;;;;14.61;82.51;101417.72;5005502;28;1016;-82
2023/07/13 05:06:28;;;;;;;;;;;;;;;14.63;82.85;101410.59;4997728;28;1401;-82
2023/07/13 05:09:15;;;;;;;;;;;;;;;14.67;82.45;101416.34;5001661;28;1914;-81
2023/07/13 05:11:40;;;;;;;;;;;;;;;14.69;82.77;101425.72;4997647;28;1166;-81
2023/07/13 05:14:06;;;;;;;;;;;;;;;14.71;82.57;101421.16;5000331;28;1249;-80
2023/07/13 05:16:32;;;;;;;;;;;;;;;14.69;83.38;101420.50;5004617;28;1353;-80
2023/07/13 05:18:57;;;;;;;;;;;;;;;14.73;82.64;101421.03;4998910;28;1650;-81
2023/07/13 05:21:22;;;;;;;;;;;;;;;14.75;83.17;101425.16;4989721;28;1058;-82
2023/07/13 05:23:47;;;;;;;;;;;;;;;14.77;83.04;101430.25;4997251;28;1277;-81
2023/07/13 05:26:13;;;;;;;;;;;;;;;14.76;83.26;101434.66;4990423;28;1087;-81
2023/07/13 05:28:38;;;;;;;;;;;;;;;14.80;84.03;101443.03;5003729;28;1902;-81
2023/07/13 05:31:04;;;;;;;;;;;;;;;14.84;84.51;101434.78;4998882;28;1206;-81
2023/07/13 05:33:29;;;;;;;;;;;;;;;14.89;84.04;101436.97;5000515;28;1272;-81
2023/07/13 05:35:54;;;;;;;;;;;;;;;14.93;84.05;101440.97;4998282;28;1215;-81
2023/07/13 05:38:20;;;;;;;;;;;;;;;14.94;84.46;101449.63;4993437;28;1170;-81
2023/07/13 05:40:46;;;;;;;;;;;;;;;14.98;84.67;101445.78;4991029;28;1270;-82
2023/07/13 05:43:11;;;;;;;;;;;;;;;15.02;84.69;101452.34;4993172;28;1249;-82
2023/07/13 05:45:36;;;;;;;;;;;;;;;15.07;84.78;101455.38;4994527;28;1532;-81
2023/07/13 05:48:02;;;;;;;;;;;;;;;15.12;84.79;101453.19;4996529;28;1964;-82
2023/07/13 05:50:27;;;;;;;;;;;;;;;15.17;84.96;101453.59;4996198;28;1387;-82
2023/07/13 05:52:52;;;;;;;;;;;;;;;15.22;84.74;101443.53;4996844;28;1649;-81
2023/07/13 05:55:18;;;;;;;;;;;;;;;15.29;85.15;101449.84;4994551;28;1260;-82
2023/07/13 05:57:43;;;;;;;;;;;;;;;15.36;84.33;101455.34;4992288;28;1150;-82
2023/07/13 06:00:08;;;;;;;;;;;;;;;15.43;85.35;101455.63;4993776;28;1567;-82
2023/07/13 06:02:33;;;;;;;;;;;;;;;15.49;85.47;101450.66;4995087;28;1189;-81
2023/07/13 06:04:58;;;;;;;;;;;;;;;15.57;84.69;101463.00;4998141;28;1242;-82
2023/07/13 06:07:24;;;;;;;;;;;;;;;15.60;84.23;101465.34;4999519;28;1629;-82
2023/07/13 06:09:49;;;;;;;;;;;;;;;15.62;84.70;101466.88;4997351;28;1890;-82
2023/07/13 06:12:14;;;;;;;;;;;;;;;15.67;85.30;101471.69;5000414;28;1225;-82
2023/07/13 06:14:39;;;;;;;;;;;;;;;15.72;84.86;101466.03;5003355;28;1261;-81
2023/07/13 06:17:05;;;;;;;;;;;;;;;15.76;85.17;101478.66;4998359;28;1634;-82
2023/07/13 06:19:30;;;;;;;;;;;;;;;15.81;85.41;101481.66;5007368;28;1296;-82
2023/07/13 06:21:55;;;;;;;;;;;;;;;15.84;85.33;101481.41;4998248;28;1325;-82
2023/07/13 06:24:20;;;;;;;;;;;;;;;15.92;84.67;101478.88;5006502;28;1058;-82
2023/07/13 06:26:45;;;;;;;;;;;;;;;15.89;85.30;101483.59;5006384;28;1336;-82
2023/07/13 06:29:10;;;;;;;;;;;;;;;15.93;85.47;101480.50;5003641;28;1906;-82
2023/07/13 06:31:36;;;;;;;;;;;;;;;15.99;85.74;101483.53;5001560;28;1303;-81
2023/07/13 06:34:01;;;;;;;;;;;;;;;16.05;85.83;101488.19;5000681;28;1233;-82
2023/07/13 06:36:26;;;;;;;;;;;;;;;16.11;85.97;101492.84;4998986;28;1241;-83
2023/07/13 06:38:51;;;;;;;;;;;;;;;16.19;85.03;101490.34;4998524;28;1268;-82
2023/07/13 06:41:16;;;;;;;;;;;;;;;16.22;85.15;101490.03;4991653;28;1424;-82
2023/07/13 06:43:42;;;;;;;;;;;;;;;16.27;85.30;101493.03;4995441;28;1299;-82
2023/07/13 06:46:07;;;;;;;;;;;;;;;16.33;84.56;101502.09;4993585;28;1372;-81
2023/07/13 06:48:32;;;;;;;;;;;;;;;16.38;84.86;101500.69;4991667;28;1949;-82
2023/07/13 06:50:58;;;;;;;;;;;;;;;16.41;84.83;101495.19;4995207;28;1310;-81
2023/07/13 06:53:23;;;;;;;;;;;;;;;16.48;84.82;101502.44;4999696;28;1406;-81
2023/07/13 06:55:49;;;;;;;;;;;;;;;16.53;84.96;101498.41;4997432;28;1264;-81
2023/07/13 06:58:15;;;;;;;;;;;;;;;16.60;85.13;101503.88;5008156;28;1172;-81
2023/07/13 07:00:40;;;;;;;;;;;;;;;16.70;85.47;101507.25;4998434;28;1217;-82
2023/07/13 07:03:05;;;;;;;;;;;;;;;16.80;85.13;101510.66;5003390;28;1178;-81
2023/07/13 07:05:30;;;;;;;;;;;;;;;16.86;84.94;101509.22;5004672;28;1239;-81
2023/07/13 07:07:56;;;;;;;;;;;;;;;16.87;84.75;101509.09;5005373;28;1950;-81
2023/07/13 07:10:21;;;;;;;;;;;;;;;16.88;84.73;101508.13;5007294;28;1112;-82
2023/07/13 07:12:47;;;;;;;;;;;;;;;16.97;84.46;101514.25;5004137;28;1522;-81
2023/07/13 07:15:12;;;;;;;;;;;;;;;16.99;84.58;101510.53;4999960;28;1242;-81
2023/07/13 07:17:37;;;;;;;;;;;;;;;17.02;84.64;101508.56;4999952;28;1265;-81
2023/07/13 07:20:03;;;;;;;;;;;;;;;17.05;84.31;101510.91;4999740;28;1252;-82
2023/07/13 07:22:29;;;;;;;;;;;;;;;17.09;84.50;101509.59;4998706;28;1296;-81
2023/07/13 07:24:55;;;;;;;;;;;;;;;17.13;84.42;101516.19;5005607;28;945;-81
2023/07/13 07:27:20;;;;;;;;;;;;;;;17.18;84.59;101512.16;5000632;28;1276;-82
2023/07/13 07:29:51;;;;;;;;;;;;;;;17.23;84.04;101516.94;5001827;28;2029;-81
2023/07/13 07:32:17;;;;;;;;;;;;;;;17.25;84.16;101507.13;5000513;28;1292;-83
2023/07/13 07:34:42;;;;;;;;;;;;;;;17.35;84.18;101515.72;5004909;28;1456;-82
2023/07/13 07:37:10;;;;;;;;;;;;;;;17.38;83.69;101520.69;5005642;28;1074;-82
2023/07/13 07:39:35;;;;;;;;;;;;;;;17.38;84.04;101510.19;5000879;28;1274;-82
2023/07/13 07:42:00;;;;;;;;;;;;;;;17.41;83.95;101525.59;5003869;28;1064;-82
2023/07/13 07:44:26;;;;;;;;;;;;;;;17.44;84.15;101522.69;5002346;28;1043;-82
2023/07/13 07:46:52;;;;;;;;;;;;;;;17.48;84.02;101521.38;4989943;28;949;-82
2023/07/13 07:49:17;;;;;;;;;;;;;;;17.53;83.88;101513.06;4993055;28;2000;-83
2023/07/13 07:51:42;;;;;;;;;;;;;;;17.61;83.55;101521.00;4998313;28;1158;-83
2023/07/13 07:54:07;;;;;;;;;;;;;;;17.68;83.52;101516.78;5003795;28;1429;-82
2023/07/13 07:56:32;;;;;;;;;;;;;;;17.76;83.44;101508.16;5005353;28;1092;-82
2023/07/13 07:58:58;;;;;;;;;;;;;;;17.77;83.10;101496.66;4995991;28;1017;-83
2023/07/13 08:01:23;;;;;;;;;;;;;;;17.90;83.14;101499.72;4998103;28;1110;-82
2023/07/13 08:03:48;;;;;;;;;;;;;;;18.01;83.09;101512.56;4999615;28;1000;-82
2023/07/13 08:06:13;;;;;;;;;;;;;;;18.15;82.44;101515.56;4997132;28;1093;-81
2023/07/13 08:08:38;;;;;;;;;;;;;;;18.25;82.02;101518.91;4997213;28;1974;-82
2023/07/13 08:11:05;;;;;;;;;;;;;;;18.32;82.05;101522.53;4999840;28;1303;-81
2023/07/13 08:13:30;;;;;;;;;;;;;;;18.47;81.27;101528.81;5001576;28;1276;-81
2023/07/13 08:15:55;;;;;;;;;;;;;;;18.48;81.13;101519.97;4996553;28;1478;-81
2023/07/13 08:18:21;;;;;;;;;;;;;;;18.58;80.95;101528.53;4994367;28;1548;-81
2023/07/13 08:20:46;;;;;;;;;;;;;;;18.67;80.42;101518.03;5001549;28;1244;-81
2023/07/13 08:23:11;;;;;;;;;;;;;;;18.72;80.08;101513.97;5005518;28;1246;-81
2023/07/13 08:25:36;;;;;;;;;;;;;;;18.75;79.30;101512.81;5005662;28;1261;-81
2023/07/13 08:28:02;;;;;;;;;;;;;;;18.79;79.24;101532.53;4998930;28;1898;-82
2023/07/13 08:30:28;;;;;;;;;;;;;;;18.88;79.16;101525.50;5019211;28;1327;-81
2023/07/13 08:32:53;;;;;;;;;;;;;;;19.02;78.74;101523.03;5001467;28;1186;-81
2023/07/13 08:35:18;;;;;;;;;;;;;;;19.00;77.06;101519.75;5004376;28;1226;-82
2023/07/13 08:37:43;;;;;;;;;;;;;;;19.02;77.10;101517.78;4996811;28;1212;-81
2023/07/13 08:40:10;;;;;;;;;;;;;;;19.10;76.76;101515.16;4999709;28;1259;-82
2023/07/13 08:42:46;;;;;;;;;;;;;;;19.19;76.50;101523.03;4993986;28;1486;-81
2023/07/13 08:45:11;;;;;;;;;;;;;;;19.32;76.14;101512.84;4993726;28;1225;-81
2023/07/13 08:47:39;;;;;;;;;;;;;;;19.51;75.42;101507.25;5000971;28;1224;-82
2023/07/13 08:50:05;;;;;;;;;;;;;;;19.73;74.35;101518.09;5003677;28;1914;-81
2023/07/13 08:52:36;;;;;;;;;;;;;;;19.85;74.85;101512.28;4997207;28;1416;-81
2023/07/13 08:55:05;;;;;;;;;;;;;;;19.92;73.97;101507.16;4998704;28;1457;-81
2023/07/13 08:57:32;;;;;;;;;;;;;;;20.05;72.50;101520.63;5002527;28;1376;-81
2023/07/13 08:59:58;;;;;;;;;;;;;;;20.15;72.67;101515.97;5000142;28;1482;-81
2023/07/13 09:02:28;;;;;;;;;;;;;;;20.14;72.44;101516.16;4997537;28;1326;-81
2023/07/13 09:05:00;;;;;;;;;;;;;;;20.06;71.42;101522.25;4999719;28;1217;-81
2023/07/13 09:07:35;;;;;;;;;;;;;;;20.01;71.71;101524.56;5001424;28;1460;-81
2023/07/13 09:10:00;;;;;;;;;;;;;;;19.84;71.93;101520.34;5000099;28;1898;-81
2023/07/13 09:12:25;;;;;;;;;;;;;;;19.73;72.36;101534.72;5001750;28;1301;-81
2023/07/13 09:14:53;;;;;;;;;;;;;;;19.65;73.05;101526.00;5003342;28;1209;-81
2023/07/13 09:17:19;;;;;;;;;;;;;;;19.57;72.85;101532.88;4998171;28;1233;-81
2023/07/13 09:19:47;;;;;;;;;;;;;;;19.47;73.44;101532.22;5001456;28;1403;-81
2023/07/13 09:22:16;;;;;;;;;;;;;;;19.47;73.40;101532.22;4998763;28;1371;-81
2023/07/13 09:24:49;;;;;;;;;;;;;;;19.50;73.41;101541.63;4998397;28;1469;-81
2023/07/13 09:27:20;;;;;;;;;;;;;;;19.52;73.51;101540.44;4998944;28;1317;-81
2023/07/13 09:29:47;;;;;;;;;;;;;;;19.52;73.17;101540.44;5000504;28;2013;-81
2023/07/13 09:32:14;;;;;;;;;;;;;;;19.50;73.30;101531.91;4996318;28;1181;-81
2023/07/13 09:34:39;;;;;;;;;;;;;;;19.47;73.01;101526.97;5001853;28;1452;-82
2023/07/13 09:37:05;;;;;;;;;;;;;;;19.54;73.60;101533.22;4999214;28;1371;-81
2023/07/13 09:39:36;;;;;;;;;;;;;;;19.56;73.26;101531.25;5002942;28;1260;-81
2023/07/13 09:42:11;;;;;;;;;;;;;;;19.56;73.09;101531.25;5002198;28;1283;-81
2023/07/13 09:44:56;;;;;;;;;;;;;;;19.50;73.47;101531.91;5004911;28;1225;-81
2023/07/13 09:47:23;;;;;;;;;;;;;;;19.35;73.46;101541.44;5005649;28;1320;-82
2023/07/13 09:49:55;;;;;;;;;;;;;;;19.30;74.08;101535.88;5003032;28;2307;-81
2023/07/13 09:52:20;;;;;;;;;;;;;;;19.25;74.14;101538.16;5007593;28;1277;-81
2023/07/13 09:54:48;;;;;;;;;;;;;;;19.24;74.62;101542.59;4995047;28;1236;-81
2023/07/13 09:57:18;;;;;;;;;;;;;;;19.26;74.67;101545.06;5008229;28;1288;-81
2023/07/13 09:59:46;;;;;;;;;;;;;;;19.35;75.41;101538.81;5004458;28;1285;-82
2023/07/13 10:02:23;;;;;;;;;;;;;;;19.48;75.69;101539.13;5002902;28;1193;-81
2023/07/13 10:04:55;;;;;;;;;;;;;;;19.65;75.89;101539.16;5002954;28;1330;-81
2023/07/13 10:07:22;;;;;;;;;;;;;;;19.86;74.90;101547.34;4999448;28;1374;-81
2023/07/13 10:09:51;;;;;;;;;;;;;;;19.98;74.54;101546.00;5003632;28;1878;-81
2023/07/13 10:12:17;;;;;;;;;;;;;;;20.05;74.08;101541.69;5003976;28;1257;-81
2023/07/13 10:14:43;;;;;;;;;;;;;;;19.97;73.62;101539.09;5006903;28;1233;-81
2023/07/13 10:17:10;;;;;;;;;;;;;;;19.96;73.46;101542.72;4998381;28;1262;-81
2023/07/13 10:19:36;;;;;;;;;;;;;;;20.08;73.59;101546.63;5005978;28;1257;-81
2023/07/13 10:22:09;;;;;;;;;;;;;;;20.26;73.31;101548.19;5001456;28;1257;-81
2023/07/13 10:24:39;;;;;;;;;;;;;;;20.28;71.89;101556.75;5000375;28;1472;-81
2023/07/13 10:27:25;;;;;;;;;;;;;;;20.24;72.90;101565.97;4999962;28;1260;-81
2023/07/13 10:30:08;;;;;;;;;;;;;;;20.08;72.44;101557.16;5002326;28;1949;-81
2023/07/13 10:32:34;;;;;;;;;;;;;;;19.98;72.36;101572.31;5001192;28;1250;-81
2023/07/13 10:35:01;;;;;;;;;;;;;;;19.91;72.91;101576.63;5001561;28;1261;-82
2023/07/13 10:37:27;;;;;;;;;;;;;;;19.88;72.50;101576.94;5006072;28;1263;-81
2023/07/13 10:39:54;;;;;;;;;;;;;;;19.77;72.50;101577.28;5005183;28;1284;-81
2023/07/13 10:42:31;;;;;;;;;;;;;;;19.75;72.34;101584.53;5004818;28;1535;-81
2023/07/13 10:44:56;;;;;;;;;;;;;;;19.57;72.17;101593.41;5003107;28;1260;-82
2023/07/13 10:47:22;;;;;;;;;;;;;;;19.55;72.72;101598.00;5003018;28;1310;-82
2023/07/13 10:49:51;;;;;;;;;;;;;;;19.51;72.69;101604.59;5005532;28;1950;-81
2023/07/13 10:52:36;;;;;;;;;;;;;;;19.51;73.02;101595.88;5007197;28;1170;-82
2023/07/13 10:55:03;;;;;;;;;;;;;;;19.37;73.46;101599.97;5001535;28;1212;-81
2023/07/13 10:57:28;;;;;;;;;;;;;;;19.26;73.66;101598.47;5005456;28;1420;-81
2023/07/13 11:00:12;;;;;;;;;;;;;;;19.19;74.07;101586.16;5003782;28;1675;-82
2023/07/13 11:02:37;;;;;;;;;;;;;;;19.21;74.71;101589.44;5001924;28;1314;-81
2023/07/13 11:05:21;;;;;;;;;;;;;;;19.27;75.29;101588.81;4998428;28;1157;-81
2023/07/13 11:08:02;;;;;;;;;;;;;;;19.39;74.91;101598.03;5001837;28;1418;-81
2023/07/13 11:10:46;;;;;;;;;;;;;;;19.51;76.22;101591.44;5003405;28;1161;-81
2023/07/13 11:13:31;;;;;;;;;;;;;;;19.73;76.69;101595.25;5003314;28;1102;-81
2023/07/13 11:15:56;;;;;;;;;;;;;;;19.94;76.50;101599.97;5003650;28;1066;-81
2023/07/13 11:18:24;;;;;;;;;;;;;;;20.09;76.00;101595.66;4996376;28;1253;-81
2023/07/13 11:20:50;;;;;;;;;;;;;;;20.25;75.47;101588.72;5002414;28;1220;-82
2023/07/13 11:23:16;;;;;;;;;;;;;;;20.40;75.53;101587.00;5000764;28;1391;-82
2023/07/13 11:25:41;;;;;;;;;;;;;;;20.54;75.21;101588.94;5000574;28;1417;-81
2023/07/13 11:28:10;;;;;;;;;;;;;;;20.62;74.71;101596.81;4995290;28;1971;-82
2023/07/13 11:30:40;;;;;;;;;;;;;;;20.62;73.75;101596.81;5001031;28;1212;-81
2023/07/13 11:33:13;;;;;;;;;;;;;;;20.56;73.68;101597.50;4998161;28;1209;-82
2023/07/13 11:35:59;;;;;;;;;;;;;;;20.56;73.71;101597.50;5002418;28;1218;-81
2023/07/13 11:38:31;;;;;;;;;;;;;;;20.64;73.58;101589.56;5002303;28;1110;-81
2023/07/13 11:40:59;;;;;;;;;;;;;;;20.82;73.56;101583.22;4996752;28;1047;-81
2023/07/13 11:43:25;;;;;;;;;;;;;;;20.90;72.38;101585.78;5005542;28;1047;-81
2023/07/13 11:45:50;;;;;;;;;;;;;;;21.01;71.15;101569.56;5001377;28;1273;-81
2023/07/13 11:48:18;;;;;;;;;;;;;;;21.00;71.00;101578.47;5001885;28;1914;-81
2023/07/13 11:50:49;;;;;;;;;;;;;;;21.14;69.66;101580.34;5003261;28;1173;-81
2023/07/13 11:53:14;;;;;;;;;;;;;;;21.26;70.33;101590.47;5003170;28;1421;-81
2023/07/13 11:55:40;;;;;;;;;;;;;;;21.35;70.50;101592.09;5000337;28;1249;-81
2023/07/13 11:58:05;;;;;;;;;;;;;;;21.41;69.25;101586.13;5001793;28;1216;-81
2023/07/13 12:00:33;;;;;;;;;;;;;;;21.40;69.75;101585.28;5003498;28;1189;-81
2023/07/13 12:03:00;;;;;;;;;;;;;;;21.47;66.02;101574.84;4992137;28;1416;-81
2023/07/13 12:05:26;;;;;;;;;;;;;;;21.36;67.05;101584.00;4990919;28;1248;-81
2023/07/13 12:07:51;;;;;;;;;;;;;;;21.41;65.24;101580.84;4994711;28;1213;-81
2023/07/13 12:10:18;;;;;;;;;;;;;;;21.25;65.33;101575.66;4999798;28;2016;-81
2023/07/13 12:12:48;;;;;;;;;;;;;;;21.33;64.85;101572.97;5000297;28;1527;-81
2023/07/13 12:15:13;;;;;;;;;;;;;;;21.53;64.83;101579.41;5002748;28;1172;-81
2023/07/13 12:17:38;;;;;;;;;;;;;;;21.53;63.90;101578.59;4992740;28;1541;-82
2023/07/13 12:20:14;;;;;;;;;;;;;;;21.64;62.35;101576.34;4993694;28;1184;-81
2023/07/13 12:22:39;;;;;;;;;;;;;;;21.74;63.07;101587.47;4998542;28;1511;-82
2023/07/13 12:25:11;;;;;;;;;;;;;;;21.87;61.91;101580.75;5086950;27;1446;-73
2023/07/13 12:27:37;;;;;;;;;;;;;;;21.95;61.30;101578.00;5090765;28;1336;-73
2023/07/13 12:30:05;;;;;;;;;;;;;;;22.10;61.54;101576.22;5087411;28;1317;-73
2023/07/13 12:32:30;;;;;;;;;;;;;;;22.15;59.82;101579.13;5087810;28;1609;-73
2023/07/13 12:34:57;;;;;;;;;;;;;;;22.03;57.88;101591.13;5083386;28;1326;-73
2023/07/13 12:37:23;;;;;;;;;;;;;;;21.84;58.16;101587.19;5084617;28;1214;-73
2023/07/13 12:39:49;;;;;;;;;;;;;;;21.87;57.93;101580.75;5079382;28;1141;-73
2023/07/13 12:42:28;;;;;;;;;;;;;;;21.80;59.70;101585.09;5088874;28;1425;-73
2023/07/13 12:44:58;;;;;;;;;;;;;;;22.05;58.21;101593.59;5087719;28;1964;-73
2023/07/13 12:47:23;;;;;;;;;;;;;;;21.94;58.72;101592.22;5080788;28;1273;-73
2023/07/13 12:49:55;;;;;;;;;;;;;;;22.01;58.32;101587.84;5083747;28;1330;-73
2023/07/13 12:52:22;;;;;;;;;;;;;;;21.99;54.50;101584.56;5077120;28;1536;-73